Forside
METAR-TAF:

METAR-TAF

Lufthavne :

Warszawa Chopin Lufthavn

Warszawa, Polen

Breddekreds: 52-10N, længdekreds: 020-58E, højde: 106 m

Aktuelle vejr

Denne rapport blev lavet for 32 minutter siden, kl. 01:00 UTC
Vind 3 kt fra syd
Temperatur 12°C
Fugtighed 82%
Tryk 1023 hPa
Sigt 10 km eller mere
Brudte skyer i en højde af 3800 ft

METAR: EPWA 130100Z 19003KT 9999 BKN038 12/09 Q1023 NOSIG

Tid: 03:32 (01:32 UTC)

Vejrudsigter

Denne rapport blev lavet for 2 timer og 2 minutter siden, kl. 23:30 UTC
Foreløbig gælder fra 13 på 00 UTC til 13 på 24 UTC
Vind 8 kt fra vestsydvest
Sigt 10 km eller mere
Brudte skyer i en højde af 3500 ft
Midlertidig
fra 13 på 08 UTC til 13 på 17 UTC
Vind 15 kt fra vestnordvest med vindstød på up til 26 kt

TAF: EPWA 122330Z 1300/1324 25008KT 9999 BKN035 TEMPO 1308/1317 29015G26KT

Vejrobservationer og prognoser fra mere end 4000 lufthavne (METAR og TAF).

De gule og røde prikker repræsenterer de meteorologiske stationer.

Flyt musen over at se navnet på stationen.

Så klik over at se vejr observationer og prognoser.

At skifte det kort: Klik på de grønne knapper med et sort kors for at zoome ind; på den grønne knap med en bindestreg for at zoome ud; eller på de grønne pile for tilstødende kort.


METAR-TAF: